sensor_id;sensor_type;location;lat;lon;timestamp;P1;durP1;ratioP1;P2;durP2;ratioP2
39814;SDS011;25495;45.948;4.568;2022-11-15T00:00:19;4.32;;;2.70;;
39814;SDS011;25495;45.948;4.568;2022-11-15T00:02:44;4.88;;;3.08;;
39814;SDS011;25495;45.948;4.568;2022-11-15T00:05:10;4.38;;;3.10;;
39814;SDS011;25495;45.948;4.568;2022-11-15T00:07:36;5.15;;;3.38;;
39814;SDS011;25495;45.948;4.568;2022-11-15T00:10:02;6.43;;;3.95;;
39814;SDS011;25495;45.948;4.568;2022-11-15T00:12:28;5.57;;;3.80;;
39814;SDS011;25495;45.948;4.568;2022-11-15T00:14:54;4.55;;;3.13;;
39814;SDS011;25495;45.948;4.568;2022-11-15T00:17:20;4.88;;;3.40;;
39814;SDS011;25495;45.948;4.568;2022-11-15T00:19:46;5.45;;;3.42;;
39814;SDS011;25495;45.948;4.568;2022-11-15T00:22:11;5.85;;;3.53;;
39814;SDS011;25495;45.948;4.568;2022-11-15T00:24:37;5.25;;;3.33;;
39814;SDS011;25495;45.948;4.568;2022-11-15T00:27:03;4.85;;;2.92;;
39814;SDS011;25495;45.948;4.568;2022-11-15T00:29:29;5.30;;;3.45;;
39814;SDS011;25495;45.948;4.568;2022-11-15T00:31:54;4.97;;;3.03;;
39814;SDS011;25495;45.948;4.568;2022-11-15T00:34:20;4.18;;;3.38;;
39814;SDS011;25495;45.948;4.568;2022-11-15T00:36:46;6.35;;;3.90;;
39814;SDS011;25495;45.948;4.568;2022-11-15T00:39:12;5.97;;;3.60;;
39814;SDS011;25495;45.948;4.568;2022-11-15T00:41:38;6.22;;;3.65;;
39814;SDS011;25495;45.948;4.568;2022-11-15T00:44:03;5.88;;;3.80;;
39814;SDS011;25495;45.948;4.568;2022-11-15T00:46:29;5.72;;;4.05;;
39814;SDS011;25495;45.948;4.568;2022-11-15T00:48:55;7.55;;;4.53;;
39814;SDS011;25495;45.948;4.568;2022-11-15T00:51:21;6.43;;;3.75;;
39814;SDS011;25495;45.948;4.568;2022-11-15T00:53:46;7.32;;;4.05;;
39814;SDS011;25495;45.948;4.568;2022-11-15T00:56:12;6.63;;;4.35;;
39814;SDS011;25495;45.948;4.568;2022-11-15T00:58:38;5.90;;;3.95;;
39814;SDS011;25495;45.948;4.568;2022-11-15T01:01:10;6.60;;;3.53;;
39814;SDS011;25495;45.948;4.568;2022-11-15T01:03:37;6.85;;;3.83;;
39814;SDS011;25495;45.948;4.568;2022-11-15T01:06:04;6.35;;;3.50;;
39814;SDS011;25495;45.948;4.568;2022-11-15T01:08:31;7.00;;;4.07;;
39814;SDS011;25495;45.948;4.568;2022-11-15T01:11:03;6.72;;;4.47;;
39814;SDS011;25495;45.948;4.568;2022-11-15T01:13:32;6.38;;;3.95;;
39814;SDS011;25495;45.948;4.568;2022-11-15T01:15:58;12.02;;;4.57;;
39814;SDS011;25495;45.948;4.568;2022-11-15T01:18:30;6.13;;;3.92;;
39814;SDS011;25495;45.948;4.568;2022-11-15T01:20:56;6.60;;;3.88;;
39814;SDS011;25495;45.948;4.568;2022-11-15T01:23:21;6.13;;;3.78;;
39814;SDS011;25495;45.948;4.568;2022-11-15T01:25:47;6.72;;;3.90;;
39814;SDS011;25495;45.948;4.568;2022-11-15T01:28:13;4.35;;;2.95;;
39814;SDS011;25495;45.948;4.568;2022-11-15T01:30:39;5.93;;;3.75;;
39814;SDS011;25495;45.948;4.568;2022-11-15T01:33:04;5.82;;;3.70;;
39814;SDS011;25495;45.948;4.568;2022-11-15T01:35:30;6.15;;;3.67;;
39814;SDS011;25495;45.948;4.568;2022-11-15T01:37:56;4.63;;;3.00;;
39814;SDS011;25495;45.948;4.568;2022-11-15T01:40:22;8.27;;;3.30;;
39814;SDS011;25495;45.948;4.568;2022-11-15T01:42:48;4.95;;;2.97;;
39814;SDS011;25495;45.948;4.568;2022-11-15T01:45:14;5.28;;;3.28;;
39814;SDS011;25495;45.948;4.568;2022-11-15T01:47:43;5.20;;;2.85;;
39814;SDS011;25495;45.948;4.568;2022-11-15T01:50:14;4.68;;;3.35;;
39814;SDS011;25495;45.948;4.568;2022-11-15T01:52:44;4.90;;;3.63;;
39814;SDS011;25495;45.948;4.568;2022-11-15T01:57:38;6.30;;;3.80;;
39814;SDS011;25495;45.948;4.568;2022-11-15T02:00:07;7.97;;;4.30;;
39814;SDS011;25495;45.948;4.568;2022-11-15T02:02:34;9.93;;;5.60;;
39814;SDS011;25495;45.948;4.568;2022-11-15T02:05:02;10.52;;;5.93;;
39814;SDS011;25495;45.948;4.568;2022-11-15T02:07:29;14.00;;;7.53;;
39814;SDS011;25495;45.948;4.568;2022-11-15T02:09:58;12.25;;;7.18;;
39814;SDS011;25495;45.948;4.568;2022-11-15T02:12:29;11.38;;;6.38;;
39814;SDS011;25495;45.948;4.568;2022-11-15T02:14:55;14.02;;;5.13;;
39814;SDS011;25495;45.948;4.568;2022-11-15T02:25:42;12.13;;;6.75;;
39814;SDS011;25495;45.948;4.568;2022-11-15T02:28:16;12.63;;;7.30;;
39814;SDS011;25495;45.948;4.568;2022-11-15T02:31:05;14.32;;;8.52;;
39814;SDS011;25495;45.948;4.568;2022-11-15T02:39:13;13.95;;;7.72;;
39814;SDS011;25495;45.948;4.568;2022-11-15T02:41:54;11.70;;;7.22;;
39814;SDS011;25495;45.948;4.568;2022-11-15T02:46:59;9.40;;;6.30;;
39814;SDS011;25495;45.948;4.568;2022-11-15T02:49:48;11.35;;;6.90;;
39814;SDS011;25495;45.948;4.568;2022-11-15T02:52:19;11.80;;;7.45;;
39814;SDS011;25495;45.948;4.568;2022-11-15T02:54:56;16.52;;;8.07;;
39814;SDS011;25495;45.948;4.568;2022-11-15T03:00:09;8.57;;;5.72;;
39814;SDS011;25495;45.948;4.568;2022-11-15T03:05:25;15.05;;;7.82;;
39814;SDS011;25495;45.948;4.568;2022-11-15T03:08:13;13.65;;;8.55;;
39814;SDS011;25495;45.948;4.568;2022-11-15T03:11:12;14.68;;;8.85;;
39814;SDS011;25495;45.948;4.568;2022-11-15T03:16:29;17.20;;;8.60;;
39814;SDS011;25495;45.948;4.568;2022-11-15T03:19:04;12.90;;;8.27;;
39814;SDS011;25495;45.948;4.568;2022-11-15T03:21:37;16.85;;;9.50;;
39814;SDS011;25495;45.948;4.568;2022-11-15T03:24:05;14.13;;;8.93;;
39814;SDS011;25495;45.948;4.568;2022-11-15T03:26:33;15.90;;;8.15;;
39814;SDS011;25495;45.948;4.568;2022-11-15T03:29:16;14.03;;;8.17;;
39814;SDS011;25495;45.948;4.568;2022-11-15T03:31:48;11.13;;;8.32;;
39814;SDS011;25495;45.948;4.568;2022-11-15T03:36:45;11.20;;;7.97;;
39814;SDS011;25495;45.948;4.568;2022-11-15T03:39:13;12.23;;;7.75;;
39814;SDS011;25495;45.948;4.568;2022-11-15T03:41:40;12.55;;;8.57;;
39814;SDS011;25495;45.948;4.568;2022-11-15T03:49:40;12.15;;;7.78;;
39814;SDS011;25495;45.948;4.568;2022-11-15T03:52:10;12.63;;;7.70;;
39814;SDS011;25495;45.948;4.568;2022-11-15T03:54:36;11.68;;;7.90;;
39814;SDS011;25495;45.948;4.568;2022-11-15T03:57:12;13.80;;;8.93;;
39814;SDS011;25495;45.948;4.568;2022-11-15T03:59:38;10.48;;;7.82;;
39814;SDS011;25495;45.948;4.568;2022-11-15T04:02:03;12.38;;;8.35;;
39814;SDS011;25495;45.948;4.568;2022-11-15T04:04:29;15.45;;;9.15;;
39814;SDS011;25495;45.948;4.568;2022-11-15T04:06:55;16.25;;;9.02;;
39814;SDS011;25495;45.948;4.568;2022-11-15T04:09:21;14.27;;;9.20;;
39814;SDS011;25495;45.948;4.568;2022-11-15T04:11:46;18.33;;;10.13;;
39814;SDS011;25495;45.948;4.568;2022-11-15T04:14:12;15.90;;;10.30;;
39814;SDS011;25495;45.948;4.568;2022-11-15T04:16:38;12.98;;;9.00;;
39814;SDS011;25495;45.948;4.568;2022-11-15T04:19:04;18.52;;;10.98;;
39814;SDS011;25495;45.948;4.568;2022-11-15T04:21:48;18.30;;;10.85;;
39814;SDS011;25495;45.948;4.568;2022-11-15T04:24:32;21.52;;;10.88;;
39814;SDS011;25495;45.948;4.568;2022-11-15T04:26:58;20.42;;;10.75;;
39814;SDS011;25495;45.948;4.568;2022-11-15T04:29:24;19.05;;;11.80;;
39814;SDS011;25495;45.948;4.568;2022-11-15T04:32:02;17.02;;;10.95;;
39814;SDS011;25495;45.948;4.568;2022-11-15T04:34:30;36.95;;;11.27;;
39814;SDS011;25495;45.948;4.568;2022-11-15T04:36:56;69.70;;;10.93;;
39814;SDS011;25495;45.948;4.568;2022-11-15T04:39:37;31.65;;;11.77;;
39814;SDS011;25495;45.948;4.568;2022-11-15T04:42:04;41.97;;;11.27;;
39814;SDS011;25495;45.948;4.568;2022-11-15T04:44:30;84.10;;;10.30;;
39814;SDS011;25495;45.948;4.568;2022-11-15T04:46:56;82.32;;;10.32;;
39814;SDS011;25495;45.948;4.568;2022-11-15T04:49:21;26.30;;;11.98;;
39814;SDS011;25495;45.948;4.568;2022-11-15T04:51:47;27.45;;;10.82;;
39814;SDS011;25495;45.948;4.568;2022-11-15T04:54:13;30.95;;;10.57;;
39814;SDS011;25495;45.948;4.568;2022-11-15T04:56:39;38.85;;;11.20;;
39814;SDS011;25495;45.948;4.568;2022-11-15T04:59:05;32.95;;;11.25;;
39814;SDS011;25495;45.948;4.568;2022-11-15T05:01:30;20.70;;;11.45;;
39814;SDS011;25495;45.948;4.568;2022-11-15T05:03:56;27.30;;;11.57;;
39814;SDS011;25495;45.948;4.568;2022-11-15T05:06:41;21.48;;;12.25;;
39814;SDS011;25495;45.948;4.568;2022-11-15T05:09:06;20.90;;;12.35;;
39814;SDS011;25495;45.948;4.568;2022-11-15T05:11:32;21.67;;;11.77;;
39814;SDS011;25495;45.948;4.568;2022-11-15T05:13:58;17.50;;;11.65;;
39814;SDS011;25495;45.948;4.568;2022-11-15T05:16:24;34.83;;;10.80;;
39814;SDS011;25495;45.948;4.568;2022-11-15T05:18:50;21.77;;;11.00;;
39814;SDS011;25495;45.948;4.568;2022-11-15T05:21:17;19.50;;;10.27;;
39814;SDS011;25495;45.948;4.568;2022-11-15T05:23:42;16.25;;;10.43;;
39814;SDS011;25495;45.948;4.568;2022-11-15T05:26:08;21.35;;;10.68;;
39814;SDS011;25495;45.948;4.568;2022-11-15T05:28:35;17.88;;;11.50;;
39814;SDS011;25495;45.948;4.568;2022-11-15T05:31:10;36.15;;;11.23;;
39814;SDS011;25495;45.948;4.568;2022-11-15T05:33:37;17.48;;;10.85;;
39814;SDS011;25495;45.948;4.568;2022-11-15T05:36:46;24.80;;;11.10;;
39814;SDS011;25495;45.948;4.568;2022-11-15T05:39:04;21.52;;;12.15;;
39814;SDS011;25495;45.948;4.568;2022-11-15T05:41:36;18.48;;;10.90;;
39814;SDS011;25495;45.948;4.568;2022-11-15T05:44:07;18.98;;;12.05;;
39814;SDS011;25495;45.948;4.568;2022-11-15T05:46:35;19.10;;;11.40;;
39814;SDS011;25495;45.948;4.568;2022-11-15T05:49:04;19.73;;;11.02;;
39814;SDS011;25495;45.948;4.568;2022-11-15T05:51:35;41.28;;;9.50;;
39814;SDS011;25495;45.948;4.568;2022-11-15T05:54:00;15.65;;;10.50;;
39814;SDS011;25495;45.948;4.568;2022-11-15T05:56:27;23.15;;;11.10;;
39814;SDS011;25495;45.948;4.568;2022-11-15T05:58:54;17.02;;;11.38;;
39814;SDS011;25495;45.948;4.568;2022-11-15T06:01:22;19.58;;;11.40;;
39814;SDS011;25495;45.948;4.568;2022-11-15T06:03:49;40.90;;;10.18;;
39814;SDS011;25495;45.948;4.568;2022-11-15T06:06:15;25.15;;;10.15;;
39814;SDS011;25495;45.948;4.568;2022-11-15T06:08:41;61.63;;;9.50;;
39814;SDS011;25495;45.948;4.568;2022-11-15T06:11:07;25.80;;;10.35;;
39814;SDS011;25495;45.948;4.568;2022-11-15T06:13:33;29.63;;;9.90;;
39814;SDS011;25495;45.948;4.568;2022-11-15T06:15:59;34.20;;;9.93;;
39814;SDS011;25495;45.948;4.568;2022-11-15T06:18:26;20.48;;;10.38;;
39814;SDS011;25495;45.948;4.568;2022-11-15T06:20:51;48.05;;;10.43;;
39814;SDS011;25495;45.948;4.568;2022-11-15T06:23:17;24.00;;;13.65;;
39814;SDS011;25495;45.948;4.568;2022-11-15T06:25:43;24.05;;;13.70;;
39814;SDS011;25495;45.948;4.568;2022-11-15T06:28:09;19.83;;;11.75;;
39814;SDS011;25495;45.948;4.568;2022-11-15T06:30:35;20.05;;;12.68;;
39814;SDS011;25495;45.948;4.568;2022-11-15T06:33:01;37.40;;;21.08;;
39814;SDS011;25495;45.948;4.568;2022-11-15T06:35:28;30.13;;;17.27;;
39814;SDS011;25495;45.948;4.568;2022-11-15T06:37:55;17.98;;;11.82;;
39814;SDS011;25495;45.948;4.568;2022-11-15T06:40:21;17.92;;;10.75;;
39814;SDS011;25495;45.948;4.568;2022-11-15T06:42:47;33.17;;;20.55;;
39814;SDS011;25495;45.948;4.568;2022-11-15T06:45:13;64.68;;;14.82;;
39814;SDS011;25495;45.948;4.568;2022-11-15T06:47:47;23.30;;;12.75;;
39814;SDS011;25495;45.948;4.568;2022-11-15T06:50:13;18.42;;;11.30;;
39814;SDS011;25495;45.948;4.568;2022-11-15T06:52:39;31.50;;;11.38;;
39814;SDS011;25495;45.948;4.568;2022-11-15T06:55:05;45.90;;;19.23;;
39814;SDS011;25495;45.948;4.568;2022-11-15T06:57:31;27.27;;;13.43;;
39814;SDS011;25495;45.948;4.568;2022-11-15T06:59:57;30.33;;;16.83;;
39814;SDS011;25495;45.948;4.568;2022-11-15T07:02:23;18.65;;;11.07;;
39814;SDS011;25495;45.948;4.568;2022-11-15T07:04:49;37.33;;;19.45;;
39814;SDS011;25495;45.948;4.568;2022-11-15T07:07:16;24.45;;;13.40;;
39814;SDS011;25495;45.948;4.568;2022-11-15T07:09:43;31.15;;;16.30;;
39814;SDS011;25495;45.948;4.568;2022-11-15T07:12:09;32.47;;;17.48;;
39814;SDS011;25495;45.948;4.568;2022-11-15T07:14:42;20.15;;;11.43;;
39814;SDS011;25495;45.948;4.568;2022-11-15T07:17:08;15.77;;;10.05;;
39814;SDS011;25495;45.948;4.568;2022-11-15T07:19:34;18.30;;;10.95;;
39814;SDS011;25495;45.948;4.568;2022-11-15T07:21:59;16.40;;;10.25;;
39814;SDS011;25495;45.948;4.568;2022-11-15T07:24:25;15.52;;;10.32;;
39814;SDS011;25495;45.948;4.568;2022-11-15T07:26:51;20.60;;;12.35;;
39814;SDS011;25495;45.948;4.568;2022-11-15T07:29:17;20.17;;;11.05;;
39814;SDS011;25495;45.948;4.568;2022-11-15T07:31:42;18.73;;;11.15;;
39814;SDS011;25495;45.948;4.568;2022-11-15T07:34:08;18.75;;;10.55;;
39814;SDS011;25495;45.948;4.568;2022-11-15T07:36:34;15.32;;;10.27;;
39814;SDS011;25495;45.948;4.568;2022-11-15T07:39:00;25.23;;;12.25;;
39814;SDS011;25495;45.948;4.568;2022-11-15T07:41:26;23.75;;;12.35;;
39814;SDS011;25495;45.948;4.568;2022-11-15T07:43:52;18.83;;;11.00;;
39814;SDS011;25495;45.948;4.568;2022-11-15T07:46:18;21.58;;;10.75;;
39814;SDS011;25495;45.948;4.568;2022-11-15T07:48:43;18.60;;;11.20;;
39814;SDS011;25495;45.948;4.568;2022-11-15T07:51:11;17.08;;;10.57;;
39814;SDS011;25495;45.948;4.568;2022-11-15T07:53:38;16.80;;;10.40;;
39814;SDS011;25495;45.948;4.568;2022-11-15T07:56:07;15.88;;;10.07;;
39814;SDS011;25495;45.948;4.568;2022-11-15T07:58:33;18.50;;;10.40;;
39814;SDS011;25495;45.948;4.568;2022-11-15T08:01:02;15.90;;;10.10;;
39814;SDS011;25495;45.948;4.568;2022-11-15T08:03:32;14.93;;;9.50;;
39814;SDS011;25495;45.948;4.568;2022-11-15T08:05:58;13.30;;;8.43;;
39814;SDS011;25495;45.948;4.568;2022-11-15T08:08:24;15.50;;;9.20;;
39814;SDS011;25495;45.948;4.568;2022-11-15T08:10:50;12.93;;;7.78;;
39814;SDS011;25495;45.948;4.568;2022-11-15T08:13:15;15.98;;;9.10;;
39814;SDS011;25495;45.948;4.568;2022-11-15T08:15:41;13.73;;;8.75;;
39814;SDS011;25495;45.948;4.568;2022-11-15T08:18:12;15.27;;;9.27;;
39814;SDS011;25495;45.948;4.568;2022-11-15T08:20:40;14.25;;;9.18;;
39814;SDS011;25495;45.948;4.568;2022-11-15T08:23:07;16.75;;;8.90;;
39814;SDS011;25495;45.948;4.568;2022-11-15T08:25:35;15.38;;;9.13;;
39814;SDS011;25495;45.948;4.568;2022-11-15T08:28:02;14.80;;;8.90;;
39814;SDS011;25495;45.948;4.568;2022-11-15T08:30:30;13.32;;;8.13;;
39814;SDS011;25495;45.948;4.568;2022-11-15T08:32:59;14.77;;;8.82;;
39814;SDS011;25495;45.948;4.568;2022-11-15T08:35:25;14.10;;;8.98;;
39814;SDS011;25495;45.948;4.568;2022-11-15T08:37:52;15.15;;;9.32;;
39814;SDS011;25495;45.948;4.568;2022-11-15T08:40:18;14.43;;;8.57;;
39814;SDS011;25495;45.948;4.568;2022-11-15T08:42:48;12.15;;;7.50;;
39814;SDS011;25495;45.948;4.568;2022-11-15T08:45:13;13.18;;;8.38;;
39814;SDS011;25495;45.948;4.568;2022-11-15T08:47:41;13.93;;;8.20;;
39814;SDS011;25495;45.948;4.568;2022-11-15T08:50:07;13.18;;;7.93;;
39814;SDS011;25495;45.948;4.568;2022-11-15T08:52:33;12.20;;;8.20;;
39814;SDS011;25495;45.948;4.568;2022-11-15T08:54:59;13.77;;;8.52;;
39814;SDS011;25495;45.948;4.568;2022-11-15T08:57:27;12.48;;;8.20;;
39814;SDS011;25495;45.948;4.568;2022-11-15T08:59:54;13.70;;;7.97;;
39814;SDS011;25495;45.948;4.568;2022-11-15T09:02:20;13.10;;;7.93;;
39814;SDS011;25495;45.948;4.568;2022-11-15T09:04:46;11.55;;;6.85;;
39814;SDS011;25495;45.948;4.568;2022-11-15T09:07:11;9.52;;;6.50;;
39814;SDS011;25495;45.948;4.568;2022-11-15T09:09:38;10.85;;;6.85;;
39814;SDS011;25495;45.948;4.568;2022-11-15T09:12:05;17.08;;;9.43;;
39814;SDS011;25495;45.948;4.568;2022-11-15T09:14:31;17.35;;;7.78;;
39814;SDS011;25495;45.948;4.568;2022-11-15T09:16:57;16.75;;;8.98;;
39814;SDS011;25495;45.948;4.568;2022-11-15T09:19:23;23.20;;;11.77;;
39814;SDS011;25495;45.948;4.568;2022-11-15T09:21:50;23.20;;;11.68;;
39814;SDS011;25495;45.948;4.568;2022-11-15T09:24:16;17.27;;;9.07;;
39814;SDS011;25495;45.948;4.568;2022-11-15T09:26:42;12.13;;;7.22;;
39814;SDS011;25495;45.948;4.568;2022-11-15T09:29:08;10.90;;;6.88;;
39814;SDS011;25495;45.948;4.568;2022-11-15T09:31:34;16.88;;;8.50;;
39814;SDS011;25495;45.948;4.568;2022-11-15T09:34:00;14.15;;;8.15;;
39814;SDS011;25495;45.948;4.568;2022-11-15T09:36:26;13.00;;;7.55;;
39814;SDS011;25495;45.948;4.568;2022-11-15T09:38:51;12.88;;;7.68;;
39814;SDS011;25495;45.948;4.568;2022-11-15T09:42:20;12.02;;;6.88;;
39814;SDS011;25495;45.948;4.568;2022-11-15T09:49:55;17.00;;;7.68;;
39814;SDS011;25495;45.948;4.568;2022-11-15T09:52:23;19.33;;;8.98;;
39814;SDS011;25495;45.948;4.568;2022-11-15T09:54:50;9.77;;;6.10;;
39814;SDS011;25495;45.948;4.568;2022-11-15T09:57:18;17.25;;;7.32;;
39814;SDS011;25495;45.948;4.568;2022-11-15T10:02:43;15.35;;;7.05;;
39814;SDS011;25495;45.948;4.568;2022-11-15T10:05:21;11.40;;;7.20;;
39814;SDS011;25495;45.948;4.568;2022-11-15T10:08:01;14.07;;;8.23;;
39814;SDS011;25495;45.948;4.568;2022-11-15T10:10:33;14.05;;;6.82;;
39814;SDS011;25495;45.948;4.568;2022-11-15T10:13:06;11.98;;;7.97;;
39814;SDS011;25495;45.948;4.568;2022-11-15T10:15:47;21.23;;;10.18;;
39814;SDS011;25495;45.948;4.568;2022-11-15T10:18:25;13.35;;;7.45;;
39814;SDS011;25495;45.948;4.568;2022-11-15T10:21:17;9.55;;;5.78;;
39814;SDS011;25495;45.948;4.568;2022-11-15T10:23:57;9.80;;;5.85;;
39814;SDS011;25495;45.948;4.568;2022-11-15T10:26:24;13.98;;;6.40;;
39814;SDS011;25495;45.948;4.568;2022-11-15T10:28:49;10.15;;;6.10;;
39814;SDS011;25495;45.948;4.568;2022-11-15T10:31:26;13.77;;;6.28;;
39814;SDS011;25495;45.948;4.568;2022-11-15T10:34:15;19.17;;;6.65;;
39814;SDS011;25495;45.948;4.568;2022-11-15T10:36:57;11.55;;;6.10;;
39814;SDS011;25495;45.948;4.568;2022-11-15T10:39:24;12.25;;;6.10;;
39814;SDS011;25495;45.948;4.568;2022-11-15T10:41:50;11.95;;;7.07;;
39814;SDS011;25495;45.948;4.568;2022-11-15T10:46:42;9.93;;;5.60;;
39814;SDS011;25495;45.948;4.568;2022-11-15T10:49:15;11.43;;;6.63;;
39814;SDS011;25495;45.948;4.568;2022-11-15T10:51:47;9.82;;;5.82;;
39814;SDS011;25495;45.948;4.568;2022-11-15T10:54:18;11.88;;;5.95;;
39814;SDS011;25495;45.948;4.568;2022-11-15T10:56:53;13.27;;;6.55;;
39814;SDS011;25495;45.948;4.568;2022-11-15T10:59:24;8.55;;;6.05;;
39814;SDS011;25495;45.948;4.568;2022-11-15T11:01:53;11.30;;;5.88;;
39814;SDS011;25495;45.948;4.568;2022-11-15T11:04:22;8.27;;;5.82;;
39814;SDS011;25495;45.948;4.568;2022-11-15T11:06:59;9.13;;;5.93;;
39814;SDS011;25495;45.948;4.568;2022-11-15T11:09:32;8.48;;;5.90;;
39814;SDS011;25495;45.948;4.568;2022-11-15T11:12:00;9.63;;;6.57;;
39814;SDS011;25495;45.948;4.568;2022-11-15T11:14:28;8.45;;;5.45;;
39814;SDS011;25495;45.948;4.568;2022-11-15T11:19:46;10.02;;;6.75;;
39814;SDS011;25495;45.948;4.568;2022-11-15T11:28:05;8.85;;;5.45;;
39814;SDS011;25495;45.948;4.568;2022-11-15T11:31:06;8.20;;;5.78;;
39814;SDS011;25495;45.948;4.568;2022-11-15T11:34:00;10.65;;;5.63;;
39814;SDS011;25495;45.948;4.568;2022-11-15T11:40:07;11.52;;;7.35;;
39814;SDS011;25495;45.948;4.568;2022-11-15T11:51:07;9.20;;;5.82;;
39814;SDS011;25495;45.948;4.568;2022-11-15T11:54:14;15.15;;;9.15;;
39814;SDS011;25495;45.948;4.568;2022-11-15T11:56:47;35.47;;;19.80;;
39814;SDS011;25495;45.948;4.568;2022-11-15T12:02:30;27.95;;;16.98;;
39814;SDS011;25495;45.948;4.568;2022-11-15T12:05:03;19.25;;;11.57;;
39814;SDS011;25495;45.948;4.568;2022-11-15T12:07:54;21.42;;;12.57;;
39814;SDS011;25495;45.948;4.568;2022-11-15T12:10:32;19.67;;;11.60;;
39814;SDS011;25495;45.948;4.568;2022-11-15T12:13:04;14.02;;;9.05;;
39814;SDS011;25495;45.948;4.568;2022-11-15T12:18:21;11.98;;;7.25;;
39814;SDS011;25495;45.948;4.568;2022-11-15T12:20:54;11.85;;;7.53;;
39814;SDS011;25495;45.948;4.568;2022-11-15T12:23:28;11.52;;;7.20;;
39814;SDS011;25495;45.948;4.568;2022-11-15T12:26:00;11.68;;;7.45;;
39814;SDS011;25495;45.948;4.568;2022-11-15T12:33:41;13.70;;;8.35;;
39814;SDS011;25495;45.948;4.568;2022-11-15T12:36:10;15.02;;;8.85;;
39814;SDS011;25495;45.948;4.568;2022-11-15T12:38:58;10.82;;;6.82;;
39814;SDS011;25495;45.948;4.568;2022-11-15T12:41:29;12.50;;;7.38;;
39814;SDS011;25495;45.948;4.568;2022-11-15T12:43:57;9.88;;;6.13;;
39814;SDS011;25495;45.948;4.568;2022-11-15T12:59:49;10.68;;;5.55;;
39814;SDS011;25495;45.948;4.568;2022-11-15T13:02:24;10.63;;;5.88;;
39814;SDS011;25495;45.948;4.568;2022-11-15T13:06:00;14.00;;;7.75;;
39814;SDS011;25495;45.948;4.568;2022-11-15T13:08:00;11.27;;;6.70;;
39814;SDS011;25495;45.948;4.568;2022-11-15T13:12:58;12.13;;;6.97;;
39814;SDS011;25495;45.948;4.568;2022-11-15T13:20:54;11.63;;;6.78;;
39814;SDS011;25495;45.948;4.568;2022-11-15T13:23:21;10.23;;;6.65;;
39814;SDS011;25495;45.948;4.568;2022-11-15T13:31:15;12.18;;;6.50;;
39814;SDS011;25495;45.948;4.568;2022-11-15T13:33:43;10.43;;;5.60;;
39814;SDS011;25495;45.948;4.568;2022-11-15T13:36:13;10.23;;;5.80;;
39814;SDS011;25495;45.948;4.568;2022-11-15T13:38:43;11.95;;;6.13;;
39814;SDS011;25495;45.948;4.568;2022-11-15T13:41:11;13.45;;;6.78;;
39814;SDS011;25495;45.948;4.568;2022-11-15T13:43:48;7.72;;;4.60;;
39814;SDS011;25495;45.948;4.568;2022-11-15T13:51:44;13.27;;;7.10;;
39814;SDS011;25495;45.948;4.568;2022-11-15T13:54:29;9.95;;;6.18;;
39814;SDS011;25495;45.948;4.568;2022-11-15T13:56:59;9.80;;;5.80;;
39814;SDS011;25495;45.948;4.568;2022-11-15T13:59:36;8.93;;;5.97;;
39814;SDS011;25495;45.948;4.568;2022-11-15T14:02:17;7.47;;;5.35;;
39814;SDS011;25495;45.948;4.568;2022-11-15T14:04:53;8.05;;;4.97;;
39814;SDS011;25495;45.948;4.568;2022-11-15T14:08:00;6.50;;;4.45;;
39814;SDS011;25495;45.948;4.568;2022-11-15T14:10:46;11.87;;;5.30;;
39814;SDS011;25495;45.948;4.568;2022-11-15T14:13:29;17.90;;;8.07;;
39814;SDS011;25495;45.948;4.568;2022-11-15T14:16:18;17.65;;;9.40;;
39814;SDS011;25495;45.948;4.568;2022-11-15T14:18:45;11.60;;;7.40;;
39814;SDS011;25495;45.948;4.568;2022-11-15T14:21:13;13.70;;;7.85;;
39814;SDS011;25495;45.948;4.568;2022-11-15T14:23:39;13.90;;;7.57;;
39814;SDS011;25495;45.948;4.568;2022-11-15T14:26:05;10.02;;;6.30;;
39814;SDS011;25495;45.948;4.568;2022-11-15T14:28:36;12.40;;;6.57;;
39814;SDS011;25495;45.948;4.568;2022-11-15T14:31:07;10.25;;;6.63;;
39814;SDS011;25495;45.948;4.568;2022-11-15T14:33:38;9.23;;;6.63;;
39814;SDS011;25495;45.948;4.568;2022-11-15T14:36:05;11.23;;;5.53;;
39814;SDS011;25495;45.948;4.568;2022-11-15T14:38:39;9.77;;;5.53;;
39814;SDS011;25495;45.948;4.568;2022-11-15T14:41:08;10.65;;;5.15;;
39814;SDS011;25495;45.948;4.568;2022-11-15T14:43:43;8.40;;;4.95;;
39814;SDS011;25495;45.948;4.568;2022-11-15T14:46:08;9.45;;;5.18;;
39814;SDS011;25495;45.948;4.568;2022-11-15T14:48:34;8.93;;;4.90;;
39814;SDS011;25495;45.948;4.568;2022-11-15T14:51:01;12.10;;;5.55;;
39814;SDS011;25495;45.948;4.568;2022-11-15T14:53:27;8.45;;;5.55;;
39814;SDS011;25495;45.948;4.568;2022-11-15T14:55:53;14.45;;;6.18;;
39814;SDS011;25495;45.948;4.568;2022-11-15T14:58:19;9.27;;;5.63;;
39814;SDS011;25495;45.948;4.568;2022-11-15T15:00:45;9.73;;;6.00;;
39814;SDS011;25495;45.948;4.568;2022-11-15T15:03:10;10.32;;;5.53;;
39814;SDS011;25495;45.948;4.568;2022-11-15T15:05:37;10.43;;;5.57;;
39814;SDS011;25495;45.948;4.568;2022-11-15T15:10:34;14.43;;;6.95;;
39814;SDS011;25495;45.948;4.568;2022-11-15T15:13:03;20.60;;;9.63;;
39814;SDS011;25495;45.948;4.568;2022-11-15T15:15:34;18.58;;;9.55;;
39814;SDS011;25495;45.948;4.568;2022-11-15T15:18:01;15.77;;;8.45;;
39814;SDS011;25495;45.948;4.568;2022-11-15T15:20:29;20.13;;;11.45;;
39814;SDS011;25495;45.948;4.568;2022-11-15T15:22:56;13.88;;;8.50;;
39814;SDS011;25495;45.948;4.568;2022-11-15T15:25:23;12.77;;;8.63;;
39814;SDS011;25495;45.948;4.568;2022-11-15T15:27:55;11.93;;;7.30;;
39814;SDS011;25495;45.948;4.568;2022-11-15T15:30:22;24.58;;;12.70;;
39814;SDS011;25495;45.948;4.568;2022-11-15T15:32:48;19.17;;;9.82;;
39814;SDS011;25495;45.948;4.568;2022-11-15T15:35:15;34.97;;;15.23;;
39814;SDS011;25495;45.948;4.568;2022-11-15T15:37:41;18.80;;;9.80;;
39814;SDS011;25495;45.948;4.568;2022-11-15T15:40:19;13.50;;;6.10;;
39814;SDS011;25495;45.948;4.568;2022-11-15T15:42:48;14.50;;;8.73;;
39814;SDS011;25495;45.948;4.568;2022-11-15T15:45:15;19.10;;;11.05;;
39814;SDS011;25495;45.948;4.568;2022-11-15T15:47:42;14.48;;;7.43;;
39814;SDS011;25495;45.948;4.568;2022-11-15T15:50:25;11.05;;;5.45;;
39814;SDS011;25495;45.948;4.568;2022-11-15T15:52:53;14.32;;;8.43;;
39814;SDS011;25495;45.948;4.568;2022-11-15T15:55:21;12.55;;;7.82;;
39814;SDS011;25495;45.948;4.568;2022-11-15T15:57:48;17.13;;;8.75;;
39814;SDS011;25495;45.948;4.568;2022-11-15T16:00:14;14.30;;;8.88;;
39814;SDS011;25495;45.948;4.568;2022-11-15T16:02:41;12.68;;;7.30;;
39814;SDS011;25495;45.948;4.568;2022-11-15T16:05:08;13.15;;;8.13;;
39814;SDS011;25495;45.948;4.568;2022-11-15T16:07:34;12.15;;;7.68;;
39814;SDS011;25495;45.948;4.568;2022-11-15T16:10:00;12.00;;;7.28;;
39814;SDS011;25495;45.948;4.568;2022-11-15T16:12:28;11.18;;;7.35;;
39814;SDS011;25495;45.948;4.568;2022-11-15T16:14:59;10.48;;;5.40;;
39814;SDS011;25495;45.948;4.568;2022-11-15T16:17:27;10.70;;;7.00;;
39814;SDS011;25495;45.948;4.568;2022-11-15T16:19:59;8.50;;;5.38;;
39814;SDS011;25495;45.948;4.568;2022-11-15T16:22:27;9.20;;;4.95;;
39814;SDS011;25495;45.948;4.568;2022-11-15T16:24:54;7.55;;;4.95;;
39814;SDS011;25495;45.948;4.568;2022-11-15T16:27:21;9.38;;;4.28;;
39814;SDS011;25495;45.948;4.568;2022-11-15T16:29:48;12.85;;;4.43;;
39814;SDS011;25495;45.948;4.568;2022-11-15T16:32:14;8.02;;;3.75;;
39814;SDS011;25495;45.948;4.568;2022-11-15T16:34:41;7.60;;;4.32;;
39814;SDS011;25495;45.948;4.568;2022-11-15T16:37:25;5.57;;;4.00;;
39814;SDS011;25495;45.948;4.568;2022-11-15T16:39:51;6.55;;;4.22;;